sensor_id;sensor_type;location;lat;lon;timestamp;pressure;altitude;pressure_sealevel;temperature;humidity
56456;BME280;42354;53.218;6.564;2023-03-22T00:00:48;47003.69;;;-142.92;99.84
56456;BME280;42354;53.218;6.564;2023-03-22T00:03:14;46995.50;;;-142.92;99.64
56456;BME280;42354;53.218;6.564;2023-03-22T00:05:40;46999.59;;;-142.92;99.12
56456;BME280;42354;53.218;6.564;2023-03-22T00:08:07;47011.91;;;-142.92;99.12
56456;BME280;42354;53.218;6.564;2023-03-22T00:10:33;47001.66;;;-142.92;99.32
56456;BME280;42354;53.218;6.564;2023-03-22T00:12:59;47007.81;;;-142.92;99.25
56456;BME280;42354;53.218;6.564;2023-03-22T00:15:25;47013.97;;;-142.92;99.54
56456;BME280;42354;53.218;6.564;2023-03-22T00:17:55;46991.38;;;-142.92;99.52
56456;BME280;42354;53.218;6.564;2023-03-22T00:20:20;46995.50;;;-142.92;99.36
56456;BME280;42354;53.218;6.564;2023-03-22T00:22:48;47020.13;;;-142.92;99.19
56456;BME280;42354;53.218;6.564;2023-03-22T00:25:14;46999.59;;;-142.92;99.07
56456;BME280;42354;53.218;6.564;2023-03-22T00:27:39;47009.84;;;-142.92;99.34
56456;BME280;42354;53.218;6.564;2023-03-22T00:30:05;46995.50;;;-142.92;99.16
56456;BME280;42354;53.218;6.564;2023-03-22T00:32:35;46972.91;;;-142.92;98.91
56456;BME280;42354;53.218;6.564;2023-03-22T00:35:01;47001.66;;;-142.92;99.10
56456;BME280;42354;53.218;6.564;2023-03-22T00:37:27;47007.81;;;-142.92;99.23
56456;BME280;42354;53.218;6.564;2023-03-22T00:39:58;46997.53;;;-142.92;99.36
56456;BME280;42354;53.218;6.564;2023-03-22T00:42:24;47005.75;;;-142.92;99.49
56456;BME280;42354;53.218;6.564;2023-03-22T00:44:49;46999.59;;;-142.92;99.37
56456;BME280;42354;53.218;6.564;2023-03-22T00:47:14;47018.06;;;-142.92;99.23
56456;BME280;42354;53.218;6.564;2023-03-22T00:49:40;46999.59;;;-142.92;98.97
56456;BME280;42354;53.218;6.564;2023-03-22T00:52:05;46993.44;;;-142.92;98.96
56456;BME280;42354;53.218;6.564;2023-03-22T00:54:31;47011.91;;;-142.92;99.04
56456;BME280;42354;53.218;6.564;2023-03-22T00:56:56;47013.97;;;-142.92;98.94
56456;BME280;42354;53.218;6.564;2023-03-22T00:59:21;46991.38;;;-142.92;98.85
56456;BME280;42354;53.218;6.564;2023-03-22T01:01:47;47007.81;;;-142.92;98.66
56456;BME280;42354;53.218;6.564;2023-03-22T01:04:12;47003.69;;;-142.92;98.62
56456;BME280;42354;53.218;6.564;2023-03-22T01:06:42;47013.97;;;-142.92;98.38
56456;BME280;42354;53.218;6.564;2023-03-22T01:09:09;47003.69;;;-142.92;98.25
56456;BME280;42354;53.218;6.564;2023-03-22T01:11:40;46999.59;;;-142.92;98.39
56456;BME280;42354;53.218;6.564;2023-03-22T01:14:08;47005.75;;;-142.92;98.10
56456;BME280;42354;53.218;6.564;2023-03-22T01:16:35;46991.38;;;-142.92;97.80
56456;BME280;42354;53.218;6.564;2023-03-22T01:19:01;47020.13;;;-142.92;98.14
56456;BME280;42354;53.218;6.564;2023-03-22T01:21:27;46993.44;;;-142.92;97.57
56456;BME280;42354;53.218;6.564;2023-03-22T01:23:53;46999.59;;;-142.92;97.54
56456;BME280;42354;53.218;6.564;2023-03-22T01:26:18;47011.91;;;-142.92;97.47
56456;BME280;42354;53.218;6.564;2023-03-22T01:28:44;47013.97;;;-142.92;97.62
56456;BME280;42354;53.218;6.564;2023-03-22T01:31:09;46997.53;;;-142.92;97.53
56456;BME280;42354;53.218;6.564;2023-03-22T01:33:35;46997.53;;;-142.92;97.37
56456;BME280;42354;53.218;6.564;2023-03-22T01:36:01;47001.66;;;-142.92;97.22
56456;BME280;42354;53.218;6.564;2023-03-22T01:38:26;46995.50;;;-142.92;97.07
56456;BME280;42354;53.218;6.564;2023-03-22T01:40:52;46993.44;;;-142.92;97.03
56456;BME280;42354;53.218;6.564;2023-03-22T01:43:17;47026.28;;;-142.92;96.86
56456;BME280;42354;53.218;6.564;2023-03-22T01:45:47;47005.75;;;-142.92;96.56
56456;BME280;42354;53.218;6.564;2023-03-22T01:48:17;46999.59;;;-142.92;96.33
56456;BME280;42354;53.218;6.564;2023-03-22T01:51:04;47007.81;;;-142.92;96.15
56456;BME280;42354;53.218;6.564;2023-03-22T01:53:37;46989.34;;;-142.92;95.85
56456;BME280;42354;53.218;6.564;2023-03-22T01:56:03;46997.53;;;-142.92;95.77
56456;BME280;42354;53.218;6.564;2023-03-22T01:58:31;47001.66;;;-142.92;95.53
56456;BME280;42354;53.218;6.564;2023-03-22T02:00:58;46987.28;;;-142.92;95.23
56456;BME280;42354;53.218;6.564;2023-03-22T02:03:31;47016.00;;;-142.92;94.77
56456;BME280;42354;53.218;6.564;2023-03-22T02:05:59;47007.81;;;-142.92;94.71
56456;BME280;42354;53.218;6.564;2023-03-22T02:08:25;47007.81;;;-142.92;94.60
56456;BME280;42354;53.218;6.564;2023-03-22T02:10:51;46997.53;;;-142.92;94.42
56456;BME280;42354;53.218;6.564;2023-03-22T02:15:57;46991.38;;;-142.92;94.32
56456;BME280;42354;53.218;6.564;2023-03-22T02:29:45;47011.91;;;-142.92;93.88
56456;BME280;42354;53.218;6.564;2023-03-22T02:38:09;46999.59;;;-142.92;93.61
56456;BME280;42354;53.218;6.564;2023-03-22T02:48:33;47020.13;;;-142.92;93.66
56456;BME280;42354;53.218;6.564;2023-03-22T02:51:04;47001.66;;;-142.92;93.65
56456;BME280;42354;53.218;6.564;2023-03-22T02:53:45;47005.75;;;-142.92;93.72
56456;BME280;42354;53.218;6.564;2023-03-22T02:58:47;46989.34;;;-142.92;93.39
56456;BME280;42354;53.218;6.564;2023-03-22T03:01:24;47011.91;;;-142.92;93.18
56456;BME280;42354;53.218;6.564;2023-03-22T03:03:55;47007.81;;;-142.92;93.12
56456;BME280;42354;53.218;6.564;2023-03-22T03:06:23;47007.81;;;-142.92;93.08
56456;BME280;42354;53.218;6.564;2023-03-22T03:08:54;47016.00;;;-142.92;93.13
56456;BME280;42354;53.218;6.564;2023-03-22T03:11:22;47009.84;;;-142.92;93.06
56456;BME280;42354;53.218;6.564;2023-03-22T03:13:49;46983.19;;;-142.92;92.71
56456;BME280;42354;53.218;6.564;2023-03-22T03:16:19;46985.22;;;-142.92;92.52
56456;BME280;42354;53.218;6.564;2023-03-22T03:21:28;46991.38;;;-142.92;92.52
56456;BME280;42354;53.218;6.564;2023-03-22T03:27:06;47011.91;;;-142.92;92.09
56456;BME280;42354;53.218;6.564;2023-03-22T03:32:37;46987.28;;;-142.92;92.49
56456;BME280;42354;53.218;6.564;2023-03-22T03:35:10;47001.66;;;-142.92;92.57
56456;BME280;42354;53.218;6.564;2023-03-22T03:37:50;46989.34;;;-142.92;92.78
56456;BME280;42354;53.218;6.564;2023-03-22T03:40:21;46997.53;;;-142.92;92.57
56456;BME280;42354;53.218;6.564;2023-03-22T03:42:50;46999.59;;;-142.92;92.53
56456;BME280;42354;53.218;6.564;2023-03-22T03:45:18;47007.81;;;-142.92;92.49
56456;BME280;42354;53.218;6.564;2023-03-22T03:47:46;46999.59;;;-142.92;92.37
56456;BME280;42354;53.218;6.564;2023-03-22T03:50:14;47013.97;;;-142.92;92.32
56456;BME280;42354;53.218;6.564;2023-03-22T03:52:40;46989.34;;;-142.92;92.35
56456;BME280;42354;53.218;6.564;2023-03-22T03:55:06;46991.38;;;-142.92;92.19
56456;BME280;42354;53.218;6.564;2023-03-22T03:57:31;46989.34;;;-142.92;92.07
56456;BME280;42354;53.218;6.564;2023-03-22T03:59:57;47003.69;;;-142.92;92.05
56456;BME280;42354;53.218;6.564;2023-03-22T04:02:22;46991.38;;;-142.92;91.93
56456;BME280;42354;53.218;6.564;2023-03-22T04:04:48;46999.59;;;-142.92;91.94
56456;BME280;42354;53.218;6.564;2023-03-22T04:07:13;47003.69;;;-142.92;92.11
56456;BME280;42354;53.218;6.564;2023-03-22T04:09:38;47003.69;;;-142.92;91.96
56456;BME280;42354;53.218;6.564;2023-03-22T04:12:04;47020.13;;;-142.92;92.06
56456;BME280;42354;53.218;6.564;2023-03-22T04:14:30;47007.81;;;-142.92;91.85
56456;BME280;42354;53.218;6.564;2023-03-22T04:16:55;47001.66;;;-142.92;91.81
56456;BME280;42354;53.218;6.564;2023-03-22T04:19:21;47001.66;;;-142.92;91.87
56456;BME280;42354;53.218;6.564;2023-03-22T04:21:47;47003.69;;;-142.92;91.72
56456;BME280;42354;53.218;6.564;2023-03-22T04:24:13;46997.53;;;-142.92;91.58
56456;BME280;42354;53.218;6.564;2023-03-22T04:26:38;47013.97;;;-142.92;91.54
56456;BME280;42354;53.218;6.564;2023-03-22T04:29:04;47009.84;;;-142.92;91.44
56456;BME280;42354;53.218;6.564;2023-03-22T04:31:33;46999.59;;;-142.92;91.11
56456;BME280;42354;53.218;6.564;2023-03-22T04:34:00;46993.44;;;-142.92;91.26
56456;BME280;42354;53.218;6.564;2023-03-22T04:36:34;47016.00;;;-142.92;91.02
56456;BME280;42354;53.218;6.564;2023-03-22T04:39:05;46993.44;;;-142.92;91.03
56456;BME280;42354;53.218;6.564;2023-03-22T04:41:32;47003.69;;;-142.92;91.25
56456;BME280;42354;53.218;6.564;2023-03-22T04:43:58;47001.66;;;-142.92;91.14
56456;BME280;42354;53.218;6.564;2023-03-22T04:46:30;47024.22;;;-142.92;90.97
56456;BME280;42354;53.218;6.564;2023-03-22T04:48:56;47011.91;;;-142.92;90.86
56456;BME280;42354;53.218;6.564;2023-03-22T04:51:21;47001.66;;;-142.92;91.04
56456;BME280;42354;53.218;6.564;2023-03-22T04:53:47;47011.91;;;-142.92;90.88
56456;BME280;42354;53.218;6.564;2023-03-22T04:56:14;47009.84;;;-142.92;91.11
56456;BME280;42354;53.218;6.564;2023-03-22T04:58:40;47005.75;;;-142.92;91.10
56456;BME280;42354;53.218;6.564;2023-03-22T05:01:07;47003.69;;;-142.92;91.24
56456;BME280;42354;53.218;6.564;2023-03-22T05:03:33;47024.22;;;-142.92;91.41
56456;BME280;42354;53.218;6.564;2023-03-22T05:06:00;46999.59;;;-142.92;91.33
56456;BME280;42354;53.218;6.564;2023-03-22T05:08:27;47007.81;;;-142.92;91.23
56456;BME280;42354;53.218;6.564;2023-03-22T05:10:54;46997.53;;;-142.92;91.56
56456;BME280;42354;53.218;6.564;2023-03-22T05:13:21;46995.50;;;-142.92;91.42
56456;BME280;42354;53.218;6.564;2023-03-22T05:15:48;46999.59;;;-142.92;91.32
56456;BME280;42354;53.218;6.564;2023-03-22T05:18:15;47003.69;;;-142.92;91.72
56456;BME280;42354;53.218;6.564;2023-03-22T05:20:41;47028.31;;;-142.92;91.74
56456;BME280;42354;53.218;6.564;2023-03-22T05:23:07;47024.22;;;-142.92;91.81
56456;BME280;42354;53.218;6.564;2023-03-22T05:25:34;46995.50;;;-142.92;91.97
56456;BME280;42354;53.218;6.564;2023-03-22T05:28:00;47018.06;;;-142.92;92.13
56456;BME280;42354;53.218;6.564;2023-03-22T05:30:27;47024.22;;;-142.92;92.14
56456;BME280;42354;53.218;6.564;2023-03-22T05:32:58;47020.13;;;-142.92;91.90
56456;BME280;42354;53.218;6.564;2023-03-22T05:35:24;46999.59;;;-142.92;92.52
56456;BME280;42354;53.218;6.564;2023-03-22T05:37:50;46987.28;;;-142.92;92.34
56456;BME280;42354;53.218;6.564;2023-03-22T05:40:16;47013.97;;;-142.92;92.53
56456;BME280;42354;53.218;6.564;2023-03-22T05:42:41;46983.19;;;-142.92;92.79
56456;BME280;42354;53.218;6.564;2023-03-22T05:45:07;46995.50;;;-142.92;92.96
56456;BME280;42354;53.218;6.564;2023-03-22T05:47:33;47009.84;;;-142.92;92.96
56456;BME280;42354;53.218;6.564;2023-03-22T05:49:58;47007.81;;;-142.92;93.19
56456;BME280;42354;53.218;6.564;2023-03-22T05:52:25;47003.69;;;-142.92;93.31
56456;BME280;42354;53.218;6.564;2023-03-22T05:54:51;46989.34;;;-142.92;93.43
56456;BME280;42354;53.218;6.564;2023-03-22T05:57:16;47020.13;;;-142.92;93.49
56456;BME280;42354;53.218;6.564;2023-03-22T05:59:43;47013.97;;;-142.92;93.74
56456;BME280;42354;53.218;6.564;2023-03-22T06:02:08;46989.34;;;-142.92;93.63
56456;BME280;42354;53.218;6.564;2023-03-22T06:04:33;46995.50;;;-142.92;94.04
56456;BME280;42354;53.218;6.564;2023-03-22T06:06:59;46997.53;;;-142.92;93.97
56456;BME280;42354;53.218;6.564;2023-03-22T06:09:24;46999.59;;;-142.92;93.92
56456;BME280;42354;53.218;6.564;2023-03-22T06:11:49;47003.69;;;-142.92;94.15
56456;BME280;42354;53.218;6.564;2023-03-22T06:14:15;47016.00;;;-142.92;94.09
56456;BME280;42354;53.218;6.564;2023-03-22T06:16:41;46999.59;;;-142.92;94.10
56456;BME280;42354;53.218;6.564;2023-03-22T06:19:08;46999.59;;;-142.92;94.19
56456;BME280;42354;53.218;6.564;2023-03-22T06:21:33;46997.53;;;-142.92;94.26
56456;BME280;42354;53.218;6.564;2023-03-22T06:23:58;47009.84;;;-142.92;94.21
56456;BME280;42354;53.218;6.564;2023-03-22T06:26:24;47018.06;;;-142.92;94.24
56456;BME280;42354;53.218;6.564;2023-03-22T06:28:50;46999.59;;;-142.92;94.07
56456;BME280;42354;53.218;6.564;2023-03-22T06:31:15;46987.28;;;-142.92;94.09
56456;BME280;42354;53.218;6.564;2023-03-22T06:33:40;47005.75;;;-142.92;93.92
56456;BME280;42354;53.218;6.564;2023-03-22T06:36:06;47013.97;;;-142.92;93.96
56456;BME280;42354;53.218;6.564;2023-03-22T06:38:31;47007.81;;;-142.92;93.85
56456;BME280;42354;53.218;6.564;2023-03-22T06:40:57;47005.75;;;-142.92;93.87
56456;BME280;42354;53.218;6.564;2023-03-22T06:43:22;46995.50;;;-142.92;93.81
56456;BME280;42354;53.218;6.564;2023-03-22T06:45:47;47011.91;;;-142.92;93.97
56456;BME280;42354;53.218;6.564;2023-03-22T06:48:14;47005.75;;;-142.92;93.85
56456;BME280;42354;53.218;6.564;2023-03-22T06:50:42;46993.44;;;-142.92;93.58
56456;BME280;42354;53.218;6.564;2023-03-22T06:53:08;46983.19;;;-142.92;93.64
56456;BME280;42354;53.218;6.564;2023-03-22T06:55:35;47013.97;;;-142.92;93.60
56456;BME280;42354;53.218;6.564;2023-03-22T06:58:00;47011.91;;;-142.92;93.49
56456;BME280;42354;53.218;6.564;2023-03-22T07:00:27;47018.06;;;-142.92;93.07
56456;BME280;42354;53.218;6.564;2023-03-22T07:02:53;46995.50;;;-142.92;93.14
56456;BME280;42354;53.218;6.564;2023-03-22T07:05:19;47003.69;;;-142.92;93.07
56456;BME280;42354;53.218;6.564;2023-03-22T07:07:44;47011.91;;;-142.92;92.75
56456;BME280;42354;53.218;6.564;2023-03-22T07:10:11;47016.00;;;-142.92;92.47
56456;BME280;42354;53.218;6.564;2023-03-22T07:12:37;47003.69;;;-142.92;91.94
56456;BME280;42354;53.218;6.564;2023-03-22T07:15:02;46995.50;;;-142.92;91.43
56456;BME280;42354;53.218;6.564;2023-03-22T07:17:28;47001.66;;;-142.92;91.09
56456;BME280;42354;53.218;6.564;2023-03-22T07:19:53;47011.91;;;-142.92;90.84
56456;BME280;42354;53.218;6.564;2023-03-22T07:22:19;46997.53;;;-142.92;90.47
56456;BME280;42354;53.218;6.564;2023-03-22T07:24:47;47007.81;;;-142.92;90.15
56456;BME280;42354;53.218;6.564;2023-03-22T07:27:13;47020.13;;;-142.92;89.89
56456;BME280;42354;53.218;6.564;2023-03-22T07:29:38;47013.97;;;-142.92;89.49
56456;BME280;42354;53.218;6.564;2023-03-22T07:32:04;47007.81;;;-142.92;89.14
56456;BME280;42354;53.218;6.564;2023-03-22T07:34:29;46995.50;;;-142.92;89.04
56456;BME280;42354;53.218;6.564;2023-03-22T07:36:55;46997.53;;;-142.92;88.93
56456;BME280;42354;53.218;6.564;2023-03-22T07:39:27;47013.97;;;-142.92;88.57
56456;BME280;42354;53.218;6.564;2023-03-22T07:41:53;47020.13;;;-142.92;88.49
56456;BME280;42354;53.218;6.564;2023-03-22T07:44:19;47016.00;;;-142.92;88.33
56456;BME280;42354;53.218;6.564;2023-03-22T07:46:45;47003.69;;;-142.92;88.15
56456;BME280;42354;53.218;6.564;2023-03-22T07:49:10;47003.69;;;-142.92;88.17
56456;BME280;42354;53.218;6.564;2023-03-22T07:51:36;47003.69;;;-142.92;87.93
56456;BME280;42354;53.218;6.564;2023-03-22T07:54:02;47007.81;;;-142.92;87.70
56456;BME280;42354;53.218;6.564;2023-03-22T07:56:28;47005.75;;;-142.92;87.61
56456;BME280;42354;53.218;6.564;2023-03-22T07:58:54;46999.59;;;-142.92;87.51
56456;BME280;42354;53.218;6.564;2023-03-22T08:01:20;47005.75;;;-142.92;87.17
56456;BME280;42354;53.218;6.564;2023-03-22T08:03:46;46991.38;;;-142.92;86.82
56456;BME280;42354;53.218;6.564;2023-03-22T08:06:11;46997.53;;;-142.92;86.21
56456;BME280;42354;53.218;6.564;2023-03-22T08:08:37;46995.50;;;-142.92;85.40
56456;BME280;42354;53.218;6.564;2023-03-22T08:11:06;47009.84;;;-142.92;84.41
56456;BME280;42354;53.218;6.564;2023-03-22T08:13:32;47003.69;;;-142.92;84.21
56456;BME280;42354;53.218;6.564;2023-03-22T08:15:57;47009.84;;;-142.92;83.75
56456;BME280;42354;53.218;6.564;2023-03-22T08:18:23;46995.50;;;-142.92;83.39
56456;BME280;42354;53.218;6.564;2023-03-22T08:20:56;47005.75;;;-142.92;82.98
56456;BME280;42354;53.218;6.564;2023-03-22T08:23:23;47016.00;;;-142.92;83.17
56456;BME280;42354;53.218;6.564;2023-03-22T08:25:49;47013.97;;;-142.92;82.68
56456;BME280;42354;53.218;6.564;2023-03-22T08:28:15;46993.44;;;-142.92;82.53
56456;BME280;42354;53.218;6.564;2023-03-22T08:30:43;47011.91;;;-142.92;82.09
56456;BME280;42354;53.218;6.564;2023-03-22T08:33:08;46991.38;;;-142.92;81.98
56456;BME280;42354;53.218;6.564;2023-03-22T08:35:34;46991.38;;;-142.92;81.84
56456;BME280;42354;53.218;6.564;2023-03-22T08:37:59;47011.91;;;-142.92;81.21
56456;BME280;42354;53.218;6.564;2023-03-22T08:40:25;47003.69;;;-142.92;81.23
56456;BME280;42354;53.218;6.564;2023-03-22T08:42:51;47038.59;;;-142.92;80.89
56456;BME280;42354;53.218;6.564;2023-03-22T08:45:16;47022.16;;;-142.92;80.27
56456;BME280;42354;53.218;6.564;2023-03-22T08:47:43;47011.91;;;-142.92;79.81
56456;BME280;42354;53.218;6.564;2023-03-22T08:50:09;47001.66;;;-142.92;79.72
56456;BME280;42354;53.218;6.564;2023-03-22T08:52:35;46999.59;;;-142.92;79.17
56456;BME280;42354;53.218;6.564;2023-03-22T08:55:01;47022.16;;;-142.92;79.28
56456;BME280;42354;53.218;6.564;2023-03-22T08:57:27;46995.50;;;-142.92;79.34
56456;BME280;42354;53.218;6.564;2023-03-22T08:59:53;47003.69;;;-142.92;78.62
56456;BME280;42354;53.218;6.564;2023-03-22T09:02:21;47001.66;;;-142.92;78.05
56456;BME280;42354;53.218;6.564;2023-03-22T09:04:46;47007.81;;;-142.92;77.71
56456;BME280;42354;53.218;6.564;2023-03-22T09:07:13;47005.75;;;-142.92;77.09
56456;BME280;42354;53.218;6.564;2023-03-22T09:09:38;47009.84;;;-142.92;77.15
56456;BME280;42354;53.218;6.564;2023-03-22T09:12:04;47005.75;;;-142.92;77.26
56456;BME280;42354;53.218;6.564;2023-03-22T09:14:29;47001.66;;;-142.92;77.19
56456;BME280;42354;53.218;6.564;2023-03-22T09:16:55;46999.59;;;-142.92;77.39
56456;BME280;42354;53.218;6.564;2023-03-22T09:19:21;47001.66;;;-142.92;77.21
56456;BME280;42354;53.218;6.564;2023-03-22T09:21:47;46991.38;;;-142.92;77.12
56456;BME280;42354;53.218;6.564;2023-03-22T09:24:12;47005.75;;;-142.92;77.31
56456;BME280;42354;53.218;6.564;2023-03-22T09:26:39;47001.66;;;-142.92;76.82
56456;BME280;42354;53.218;6.564;2023-03-22T09:29:04;47016.00;;;-142.92;76.91
56456;BME280;42354;53.218;6.564;2023-03-22T09:31:30;47007.81;;;-142.92;76.79
56456;BME280;42354;53.218;6.564;2023-03-22T09:33:55;47003.69;;;-142.92;76.75
56456;BME280;42354;53.218;6.564;2023-03-22T09:36:20;47005.75;;;-142.92;76.91
56456;BME280;42354;53.218;6.564;2023-03-22T09:38:47;47007.81;;;-142.92;76.95
56456;BME280;42354;53.218;6.564;2023-03-22T09:41:30;47003.69;;;-142.92;77.30
56456;BME280;42354;53.218;6.564;2023-03-22T09:44:03;46987.28;;;-142.92;78.04
56456;BME280;42354;53.218;6.564;2023-03-22T09:46:41;47001.66;;;-142.92;78.56
56456;BME280;42354;53.218;6.564;2023-03-22T09:49:15;46991.38;;;-142.92;78.95
56456;BME280;42354;53.218;6.564;2023-03-22T09:51:47;47011.91;;;-142.92;79.28
56456;BME280;42354;53.218;6.564;2023-03-22T09:54:36;47028.31;;;-142.92;79.83
56456;BME280;42354;53.218;6.564;2023-03-22T09:59:55;47011.91;;;-142.92;80.82
56456;BME280;42354;53.218;6.564;2023-03-22T10:05:33;47007.81;;;-142.92;82.24
56456;BME280;42354;53.218;6.564;2023-03-22T10:10:39;47011.91;;;-142.92;84.07
56456;BME280;42354;53.218;6.564;2023-03-22T10:16:09;47022.16;;;-142.92;85.69
56456;BME280;42354;53.218;6.564;2023-03-22T10:18:48;47003.69;;;-142.92;86.35
56456;BME280;42354;53.218;6.564;2023-03-22T10:21:17;46993.44;;;-142.92;87.71
56456;BME280;42354;53.218;6.564;2023-03-22T10:23:50;46991.38;;;-142.92;88.04
56456;BME280;42354;53.218;6.564;2023-03-22T10:26:22;47005.75;;;-142.92;88.91
56456;BME280;42354;53.218;6.564;2023-03-22T10:28:56;46999.59;;;-142.92;89.69
56456;BME280;42354;53.218;6.564;2023-03-22T10:31:25;46999.59;;;-142.92;91.09
56456;BME280;42354;53.218;6.564;2023-03-22T10:34:01;46999.59;;;-142.92;92.00
56456;BME280;42354;53.218;6.564;2023-03-22T10:36:34;46999.59;;;-142.92;92.44
56456;BME280;42354;53.218;6.564;2023-03-22T10:41:45;46997.53;;;-142.92;93.20
56456;BME280;42354;53.218;6.564;2023-03-22T10:44:17;47003.69;;;-142.92;94.41
56456;BME280;42354;53.218;6.564;2023-03-22T10:46:44;47013.97;;;-142.92;95.21
56456;BME280;42354;53.218;6.564;2023-03-22T10:49:33;47024.22;;;-142.92;95.55
56456;BME280;42354;53.218;6.564;2023-03-22T10:52:12;47011.91;;;-142.92;95.72
56456;BME280;42354;53.218;6.564;2023-03-22T10:54:43;46999.59;;;-142.92;96.02
56456;BME280;42354;53.218;6.564;2023-03-22T10:57:08;46999.59;;;-142.92;96.97
56456;BME280;42354;53.218;6.564;2023-03-22T10:59:45;47024.22;;;-142.92;96.90
56456;BME280;42354;53.218;6.564;2023-03-22T11:02:31;47020.13;;;-142.92;97.42
56456;BME280;42354;53.218;6.564;2023-03-22T11:05:02;46983.19;;;-142.92;97.64
56456;BME280;42354;53.218;6.564;2023-03-22T11:07:37;47001.66;;;-142.92;97.54
56456;BME280;42354;53.218;6.564;2023-03-22T11:12:28;46993.44;;;-142.92;98.08
56456;BME280;42354;53.218;6.564;2023-03-22T11:14:55;47005.75;;;-142.92;97.73
56456;BME280;42354;53.218;6.564;2023-03-22T11:17:25;47013.97;;;-142.92;97.95
56456;BME280;42354;53.218;6.564;2023-03-22T11:19:54;47003.69;;;-142.92;97.82
56456;BME280;42354;53.218;6.564;2023-03-22T11:22:34;47003.69;;;-142.92;97.78
56456;BME280;42354;53.218;6.564;2023-03-22T11:25:02;46989.34;;;-142.92;97.90
56456;BME280;42354;53.218;6.564;2023-03-22T11:27:33;46983.19;;;-142.92;97.56
56456;BME280;42354;53.218;6.564;2023-03-22T11:30:20;47003.69;;;-142.92;97.49
56456;BME280;42354;53.218;6.564;2023-03-22T11:32:46;46993.44;;;-142.92;97.98
56456;BME280;42354;53.218;6.564;2023-03-22T11:35:16;46987.28;;;-142.92;97.70
56456;BME280;42354;53.218;6.564;2023-03-22T11:37:46;47013.97;;;-142.92;97.56
56456;BME280;42354;53.218;6.564;2023-03-22T11:40:28;46995.50;;;-142.92;97.40
56456;BME280;42354;53.218;6.564;2023-03-22T11:42:57;46993.44;;;-142.92;97.66
56456;BME280;42354;53.218;6.564;2023-03-22T11:45:35;46995.50;;;-142.92;97.44
56456;BME280;42354;53.218;6.564;2023-03-22T11:48:05;47018.06;;;-142.92;97.36
56456;BME280;42354;53.218;6.564;2023-03-22T11:50:35;47001.66;;;-142.92;97.22
56456;BME280;42354;53.218;6.564;2023-03-22T11:53:05;46999.59;;;-142.92;97.64
56456;BME280;42354;53.218;6.564;2023-03-22T11:55:35;46987.28;;;-142.92;97.53
56456;BME280;42354;53.218;6.564;2023-03-22T11:58:05;46999.59;;;-142.92;97.47
56456;BME280;42354;53.218;6.564;2023-03-22T12:00:35;47011.91;;;-142.92;97.33
56456;BME280;42354;53.218;6.564;2023-03-22T12:03:10;47007.81;;;-142.92;97.21
56456;BME280;42354;53.218;6.564;2023-03-22T12:05:40;47011.91;;;-142.92;97.29
56456;BME280;42354;53.218;6.564;2023-03-22T12:08:24;47001.66;;;-142.92;96.85
56456;BME280;42354;53.218;6.564;2023-03-22T12:11:04;46989.34;;;-142.92;97.01
56456;BME280;42354;53.218;6.564;2023-03-22T12:16:04;47007.81;;;-142.92;97.22
56456;BME280;42354;53.218;6.564;2023-03-22T12:18:50;47005.75;;;-142.92;96.70
56456;BME280;42354;53.218;6.564;2023-03-22T12:21:22;47007.81;;;-142.92;97.04
56456;BME280;42354;53.218;6.564;2023-03-22T12:23:47;46999.59;;;-142.92;96.82
56456;BME280;42354;53.218;6.564;2023-03-22T12:26:17;47001.66;;;-142.92;96.79
56456;BME280;42354;53.218;6.564;2023-03-22T12:31:32;47003.69;;;-142.92;96.86
56456;BME280;42354;53.218;6.564;2023-03-22T12:34:08;46993.44;;;-142.92;96.57
56456;BME280;42354;53.218;6.564;2023-03-22T12:36:41;46991.38;;;-142.92;96.38
56456;BME280;42354;53.218;6.564;2023-03-22T12:39:12;47005.75;;;-142.92;96.51
56456;BME280;42354;53.218;6.564;2023-03-22T12:41:46;47003.69;;;-142.92;97.21
56456;BME280;42354;53.218;6.564;2023-03-22T12:44:36;47009.84;;;-142.92;97.80
56456;BME280;42354;53.218;6.564;2023-03-22T12:47:13;47001.66;;;-142.92;98.32
56456;BME280;42354;53.218;6.564;2023-03-22T12:52:18;47003.69;;;-142.92;99.53
56456;BME280;42354;53.218;6.564;2023-03-22T12:54:46;47016.00;;;-142.92;100.00
56456;BME280;42354;53.218;6.564;2023-03-22T12:57:14;46987.28;;;-142.92;100.00
56456;BME280;42354;53.218;6.564;2023-03-22T12:59:43;47016.00;;;-142.92;100.00
56456;BME280;42354;53.218;6.564;2023-03-22T13:02:22;46991.38;;;-142.92;100.00
56456;BME280;42354;53.218;6.564;2023-03-22T13:04:54;46985.22;;;-142.92;100.00
56456;BME280;42354;53.218;6.564;2023-03-22T13:07:31;47007.81;;;-142.92;100.00
56456;BME280;42354;53.218;6.564;2023-03-22T13:09:58;47011.91;;;-142.92;100.00
56456;BME280;42354;53.218;6.564;2023-03-22T13:12:27;46993.44;;;-142.92;100.00
56456;BME280;42354;53.218;6.564;2023-03-22T13:30:31;46991.38;;;-142.92;100.00
56456;BME280;42354;53.218;6.564;2023-03-22T13:33:11;47018.06;;;-142.92;100.00
56456;BME280;42354;53.218;6.564;2023-03-22T13:35:55;47011.91;;;-142.92;100.00
56456;BME280;42354;53.218;6.564;2023-03-22T13:38:38;46995.50;;;-142.92;100.00
56456;BME280;42354;53.218;6.564;2023-03-22T13:41:25;47026.28;;;-142.92;100.00
56456;BME280;42354;53.218;6.564;2023-03-22T13:43:55;47011.91;;;-142.92;100.00
56456;BME280;42354;53.218;6.564;2023-03-22T14:02:14;46999.59;;;-142.92;100.00
56456;BME280;42354;53.218;6.564;2023-03-22T14:04:57;47016.00;;;-142.92;100.00
56456;BME280;42354;53.218;6.564;2023-03-22T14:10:45;47009.84;;;-142.92;100.00
56456;BME280;42354;53.218;6.564;2023-03-22T14:13:25;47007.81;;;-142.92;100.00
56456;BME280;42354;53.218;6.564;2023-03-22T14:15:55;46995.50;;;-142.92;100.00
56456;BME280;42354;53.218;6.564;2023-03-22T14:18:26;46985.22;;;-142.92;100.00
56456;BME280;42354;53.218;6.564;2023-03-22T14:20:56;47003.69;;;-142.92;100.00
56456;BME280;42354;53.218;6.564;2023-03-22T14:23:27;47001.66;;;-142.92;100.00
56456;BME280;42354;53.218;6.564;2023-03-22T14:26:01;47024.22;;;-142.92;100.00